Pederneiras, Brazil
Current Conditions -  °F | °C
As of 12:00 AM on Saturday 20 Dec 2014 (Local Time) from SBBU Reporting Station
Clear Clear  
Wind Chill: 81°   Ceiling: Unl
Heat Index: 86°   Visibility: 6mi
Dew Point: 75°   Wind: 5mph
Humidity: 84%   Direction: 40°NE
Pressure: 29.85"   Gusts: NA
Location:  22.35°S, 48.77°W
Report Text: SBBU 200200Z 04004KT CAVOK 27/24 Q1011
Loading
Personal Weather Stations






























Interactive Weather Map New forecast layout! Learn more

10-Day Weather Forecast

Advertisements
Track Severe Weather on mobile